Terminal Aerodrome Forecast
Issued by NWS

Home | Current Version | Previous Version | Text Only | Print | Product List | Glossary On
Versions: 1 2 3 4 5 6 7 8 9 10 11 12 13 14 15 16 17 18
000
FTUS44 KHGX 252340
TAFSGR
TAF
KSGR 252340Z 2600/2624 15005KT P6SM SCT080 BKN120
     FM260300 09004KT P6SM SCT250
     FM261300 06004KT P6SM VCSH SCT025 BKN150
     FM261800 08006KT P6SM VCTS BKN035CB
      TEMPO 2619/2623 VRB20KT 2SM TSRA OVC020CB=

USA.gov is the U.S. government's official web portal to all federal, state and local government web resources and services.